Terminal Aerodrome Forecast
Issued by NWS

Current Version | Previous Version | Text Only | Print | Product List | Glossary On
Versions: 1 2 3 4 5 6 7 8 9 10 11 12 13 14 15 16 17 18 19 20 21 22
000
FTUS43 KDLH 190400 AAA
TAFHIB
TAF AMD
KHIB 190400Z 1904/1924 12011KT P6SM BKN070 OVC090
     FM190700 13015KT P6SM VCSH OVC050 WS013/18035KT
     FM190900 12015G25KT 4SM -FZRA BR OVC030
     FM191200 14017G27KT 2SM -RA BR OVC014
     FM191500 16016G26KT 3SM -RA OVC006
     FM192000 19008KT P6SM SCT015=

USA.gov is the U.S. government's official web portal to all federal, state and local government web resources and services.